createdAt,value
2018-02-08T00:02:10.623Z,79.50
2018-02-08T00:07:05.881Z,80.20
2018-02-08T00:12:01.201Z,80.30
2018-02-08T00:16:56.459Z,80.40
2018-02-08T00:21:50.858Z,80.40
2018-02-08T00:26:45.267Z,79.70
2018-02-08T00:31:39.669Z,79.40
2018-02-08T00:36:33.965Z,79.10
2018-02-08T00:41:28.288Z,80.20
2018-02-08T00:46:22.576Z,80.00
2018-02-08T00:51:16.867Z,81.20
2018-02-08T00:56:11.321Z,79.80
2018-02-08T01:01:05.573Z,80.30
2018-02-08T01:05:59.871Z,79.80
2018-02-08T01:10:54.196Z,80.60
2018-02-08T01:15:48.501Z,81.50
2018-02-08T01:20:42.776Z,82.50
2018-02-08T01:25:37.204Z,81.60
2018-02-08T01:30:31.512Z,81.50
2018-02-08T01:35:25.823Z,81.90
2018-02-08T01:40:20.202Z,81.60
2018-02-08T01:45:14.694Z,82.00
2018-02-08T01:50:09.040Z,82.20
2018-02-08T01:55:03.322Z,81.30
2018-02-08T01:59:57.588Z,80.90
2018-02-08T02:04:51.934Z,81.60
2018-02-08T02:09:46.217Z,81.40
2018-02-08T02:14:40.506Z,81.40
2018-02-08T02:19:34.601Z,81.90
2018-02-08T02:24:28.999Z,82.30
2018-02-08T02:29:23.290Z,82.40
2018-02-08T02:34:17.589Z,82.60
2018-02-08T02:39:11.863Z,82.50
2018-02-08T02:44:07.065Z,82.50
2018-02-08T02:49:01.354Z,82.40
2018-02-08T02:53:55.644Z,83.20
2018-02-08T02:58:49.924Z,82.40
2018-02-08T03:03:44.203Z,83.10
2018-02-08T03:08:38.480Z,83.20
2018-02-08T03:13:33.542Z,83.30
2018-02-08T03:18:27.968Z,83.20
2018-02-08T03:23:22.244Z,83.40
2018-02-08T03:28:16.533Z,83.10
2018-02-08T03:33:10.629Z,83.30
2018-02-08T03:38:05.169Z,83.80
2018-02-08T03:42:59.466Z,83.90
2018-02-08T03:47:53.765Z,84.60
2018-02-08T03:52:48.053Z,84.70
2018-02-08T03:57:42.642Z,85.00
2018-02-08T04:02:36.930Z,84.50
2018-02-08T04:07:31.244Z,85.10
2018-02-08T04:12:25.746Z,84.10
2018-02-08T04:17:20.024Z,84.70
2018-02-08T04:22:15.346Z,84.50
2018-02-08T04:27:10.395Z,85.40
2018-02-08T04:32:04.697Z,85.40
2018-02-08T04:36:58.979Z,85.50
2018-02-08T04:48:08.680Z,85.30
2018-02-08T04:53:02.864Z,85.80
2018-02-08T04:57:57.917Z,84.70
2018-02-08T05:02:54.167Z,84.70
2018-02-08T05:07:49.285Z,85.60
2018-02-08T05:12:43.689Z,85.00
2018-02-08T05:17:38.153Z,84.80
2018-02-08T05:22:33.206Z,85.10
2018-02-08T05:27:27.595Z,84.80
2018-02-08T05:32:21.882Z,84.50
2018-02-08T05:37:16.952Z,84.10
2018-02-08T05:42:11.366Z,84.00
2018-02-08T05:47:05.646Z,83.70
2018-02-08T05:51:59.925Z,84.20
2018-02-08T05:56:54.451Z,83.40
2018-02-08T06:01:48.750Z,84.90
2018-02-08T06:06:43.088Z,85.50
2018-02-08T06:11:37.520Z,85.30
2018-02-08T06:16:32.568Z,85.40
2018-02-08T06:21:34.192Z,84.70
2018-02-08T06:26:29.056Z,84.10
2018-02-08T06:31:23.358Z,84.00
2018-02-08T06:36:17.651Z,84.00
2018-02-08T06:41:12.326Z,84.00
2018-02-08T06:46:07.375Z,84.70
2018-02-08T06:51:01.678Z,84.60
2018-02-08T06:55:56.033Z,84.90
2018-02-08T07:00:50.491Z,85.70
2018-02-08T07:05:44.899Z,85.50
2018-02-08T07:10:39.187Z,86.00
2018-02-08T07:15:33.954Z,85.30
2018-02-08T07:20:29.030Z,84.30
2018-02-08T07:25:23.086Z,84.30
2018-02-08T07:30:18.654Z,83.50
2018-02-08T07:35:12.945Z,83.40
2018-02-08T07:40:07.244Z,83.20
2018-02-08T07:45:01.626Z,82.40
2018-02-08T07:49:56.683Z,80.90
2018-02-08T07:54:51.029Z,80.90
2018-02-08T07:59:46.132Z,77.80
2018-02-08T08:04:40.760Z,77.60
2018-02-08T08:09:35.730Z,65.30
2018-02-08T08:14:30.097Z,65.30
2018-02-08T08:19:24.360Z,63.20
2018-02-08T08:24:18.660Z,55.90
2018-02-08T08:29:14.590Z,50.10
2018-02-08T08:34:09.443Z,50.10
2018-02-08T08:39:03.730Z,49.70
2018-02-08T08:43:59.117Z,49.30
2018-02-08T08:48:53.408Z,49.20
2018-02-08T08:53:47.702Z,47.10
2018-02-08T08:58:42.018Z,45.50
2018-02-08T09:03:36.301Z,44.00
2018-02-08T09:08:30.595Z,42.00
2018-02-08T09:13:24.902Z,35.70
2018-02-08T09:18:19.207Z,36.30
2018-02-08T09:23:13.537Z,35.90
2018-02-08T09:28:07.826Z,36.10
2018-02-08T09:33:02.114Z,34.80
2018-02-08T09:37:56.410Z,32.80
2018-02-08T09:42:50.699Z,32.40
2018-02-08T09:47:45.026Z,34.20
2018-02-08T09:52:39.319Z,33.80
2018-02-08T09:57:33.778Z,33.50
2018-02-08T10:02:28.837Z,35.20
2018-02-08T10:07:23.146Z,34.50
2018-02-08T10:12:17.438Z,35.80
2018-02-08T10:17:11.712Z,40.20
2018-02-08T10:22:05.984Z,41.80
2018-02-08T10:27:01.029Z,44.30
2018-02-08T10:31:55.566Z,44.30
2018-02-08T10:36:50.191Z,45.20
2018-02-08T10:41:44.401Z,46.00
2018-02-08T10:46:38.804Z,46.20
2018-02-08T10:51:34.580Z,47.50
2018-02-08T10:56:28.891Z,47.50
2018-02-08T11:01:23.177Z,48.80
2018-02-08T11:06:17.457Z,49.00
2018-02-08T11:11:12.680Z,49.50
2018-02-08T11:16:07.724Z,49.10
2018-02-08T11:21:02.146Z,49.10
2018-02-08T11:25:56.538Z,50.00
2018-02-08T11:30:50.839Z,49.90
2018-02-08T11:35:45.139Z,50.00
2018-02-08T11:40:42.400Z,50.00
2018-02-08T11:45:37.346Z,50.60
2018-02-08T11:50:31.621Z,51.00
2018-02-08T11:55:25.893Z,51.30
2018-02-08T12:00:20.979Z,51.90
2018-02-08T12:05:15.243Z,51.80
2018-02-08T12:10:09.988Z,51.80
2018-02-08T12:15:04.260Z,52.20
2018-02-08T12:19:58.908Z,51.30
2018-02-08T12:24:53.205Z,50.70
2018-02-08T12:29:47.470Z,50.80
2018-02-08T12:34:41.773Z,51.00
2018-02-08T12:39:36.808Z,50.80
2018-02-08T12:44:31.142Z,50.40
2018-02-08T12:49:25.729Z,50.10
2018-02-08T12:54:20.015Z,50.00
2018-02-08T12:59:14.417Z,49.40
2018-02-08T13:04:09.630Z,48.80
2018-02-08T13:09:03.482Z,48.80
2018-02-08T13:13:58.531Z,46.40
2018-02-08T13:18:52.945Z,46.40
2018-02-08T13:23:47.229Z,47.80
2018-02-08T13:28:41.562Z,47.00
2018-02-08T13:33:36.042Z,45.20
2018-02-08T13:38:30.130Z,47.00
2018-02-08T13:43:24.884Z,47.00
2018-02-08T13:48:20.924Z,47.30
2018-02-08T13:53:19.040Z,47.30
2018-02-08T13:58:14.821Z,47.10
2018-02-08T14:03:08.919Z,47.10
2018-02-08T14:08:03.619Z,47.30
2018-02-08T14:12:57.999Z,47.40
2018-02-08T14:17:53.276Z,47.10
2018-02-08T14:22:47.645Z,47.10
2018-02-08T14:27:42.042Z,47.10
2018-02-08T14:32:36.460Z,47.20
2018-02-08T14:37:30.882Z,47.30
2018-02-08T14:42:26.702Z,46.70
2018-02-08T14:47:21.093Z,46.70
2018-02-08T14:52:15.628Z,46.40
2018-02-08T14:57:09.938Z,46.90
2018-02-08T15:02:04.937Z,47.60
2018-02-08T15:06:59.264Z,47.70
2018-02-08T15:11:53.625Z,48.00
2018-02-08T15:16:48.039Z,48.10
2018-02-08T15:21:42.440Z,48.20
2018-02-08T15:26:36.777Z,48.10
2018-02-08T15:31:32.836Z,48.00
2018-02-08T15:36:27.966Z,48.20
2018-02-08T15:41:23.199Z,48.70
2018-02-08T15:46:18.339Z,48.60
2018-02-08T15:51:12.707Z,48.90
2018-02-08T15:56:07.752Z,48.30
2018-02-08T16:01:02.043Z,48.30
2018-02-08T16:05:56.325Z,49.20
2018-02-08T16:10:51.364Z,49.10
2018-02-08T16:15:45.780Z,49.00
2018-02-08T16:20:40.232Z,49.60
2018-02-08T16:25:34.504Z,50.10
2018-02-08T16:30:28.940Z,50.10
2018-02-08T16:35:23.617Z,50.60
2018-02-08T16:40:18.385Z,51.20
2018-02-08T16:45:13.529Z,54.50
2018-02-08T16:50:08.039Z,54.50
2018-02-08T16:55:02.712Z,55.30
2018-02-08T16:59:57.059Z,55.90
2018-02-08T17:04:51.143Z,56.00
2018-02-08T17:09:45.229Z,56.00
2018-02-08T17:14:40.181Z,56.10
2018-02-08T17:19:35.416Z,56.30
2018-02-08T17:24:30.686Z,57.50
2018-02-08T17:29:24.964Z,57.50
2018-02-08T17:34:19.258Z,58.10
2018-02-08T17:39:13.615Z,58.50
2018-02-08T17:44:07.975Z,58.60
2018-02-08T17:49:02.293Z,58.80
2018-02-08T17:53:56.703Z,59.40
2018-02-08T17:58:51.002Z,58.60
2018-02-08T18:03:45.294Z,58.90
2018-02-08T18:08:39.993Z,58.70
2018-02-08T18:13:35.411Z,58.90
2018-02-08T18:18:29.747Z,58.30
2018-02-08T18:23:24.335Z,58.40
2018-02-08T18:28:18.680Z,58.60
2018-02-08T18:33:13.781Z,58.10
2018-02-08T18:38:08.069Z,58.10
2018-02-08T18:43:02.361Z,57.90
2018-02-08T18:47:56.677Z,57.80
2018-02-08T18:52:51.225Z,58.10
2018-02-08T18:57:45.542Z,59.30
2018-02-08T19:02:40.770Z,59.50
2018-02-08T19:07:35.073Z,59.40
2018-02-08T19:12:29.416Z,60.40
2018-02-08T19:17:24.615Z,64.30
2018-02-08T19:22:18.942Z,64.20
2018-02-08T19:27:13.424Z,66.10
2018-02-08T19:32:14.866Z,66.30
2018-02-08T19:37:09.331Z,65.80
2018-02-08T19:42:03.724Z,67.00
2018-02-08T19:46:58.259Z,68.10
2018-02-08T19:51:52.599Z,67.90
2018-02-08T19:56:46.717Z,68.70
2018-02-08T20:01:41.242Z,69.50
2018-02-08T20:06:35.553Z,70.40
2018-02-08T20:11:30.839Z,69.60
2018-02-08T20:16:26.136Z,69.50
2018-02-08T20:21:20.658Z,70.20
2018-02-08T20:26:15.280Z,70.40
2018-02-08T20:31:20.609Z,71.00
2018-02-08T20:36:15.170Z,70.70
2018-02-08T20:41:09.482Z,71.40
2018-02-08T20:46:04.709Z,73.80
2018-02-08T20:50:59.869Z,73.50
2018-02-08T20:55:54.169Z,73.50
2018-02-08T21:00:48.647Z,73.30
2018-02-08T21:05:42.951Z,74.40
2018-02-08T21:10:37.256Z,73.60
2018-02-08T21:15:31.654Z,73.80
2018-02-08T21:20:25.970Z,74.00
2018-02-08T21:25:20.349Z,73.70
2018-02-08T21:30:15.421Z,75.00
2018-02-08T21:35:09.738Z,75.00
2018-02-08T21:40:05.368Z,75.30
2018-02-08T21:44:59.663Z,75.30
2018-02-08T21:49:53.978Z,75.20
2018-02-08T21:54:48.346Z,75.50
2018-02-08T21:59:42.632Z,75.50
2018-02-08T22:04:36.962Z,75.60
2018-02-08T22:09:31.280Z,77.00
2018-02-08T22:14:25.880Z,77.10
2018-02-08T22:19:20.375Z,76.60
2018-02-08T22:24:14.682Z,76.80
2018-02-08T22:29:08.958Z,77.00
2018-02-08T22:34:03.270Z,76.90
2018-02-08T22:38:57.564Z,77.70
2018-02-08T22:43:51.892Z,79.00
2018-02-08T22:48:46.374Z,78.30
2018-02-08T22:53:40.674Z,78.60
2018-02-08T22:58:34.982Z,78.30
2018-02-08T23:03:29.299Z,78.10
2018-02-08T23:08:23.569Z,79.40
2018-02-08T23:13:17.870Z,79.20
2018-02-08T23:18:12.275Z,80.00
2018-02-08T23:23:06.564Z,80.30
2018-02-08T23:28:00.997Z,80.60
2018-02-08T23:32:55.367Z,80.10
2018-02-08T23:37:49.669Z,80.30
2018-02-08T23:42:44.071Z,80.40
2018-02-08T23:47:38.400Z,80.60
2018-02-08T23:52:32.708Z,80.60
2018-02-08T23:57:27.008Z,81.00
